UAL1382 KORD-KMCO
Flight info
| Callsign | UAL1382 |
|---|---|
| Flight time | N/A |
| Altitude | 37000 |
| Route | DENNT DARCY DREGS DUMGE SCOTO SWAPP Q79 THRSR ZJAYX GRNCH5 |
| Aircraft | B738/M-SDE2E3FGHIRWXY/LB1 |
Departure
| Time | 2026-05-08 00:36 |
|---|---|
| Airport | Chicago O'Hare International Airport (KORD) |
Arrival
| Time | N/A |
|---|---|
| Airport | Orlando International Airport (KMCO) |
| Time | Latitude | Longitude | Altitude | Speed | Heading |
|---|---|---|---|---|---|
| 2026-05-08 00:09 | 41.98060 | -87.90917 | 668 ft | 0 kts | 280° |
| 2026-05-08 00:27 | 41.98059 | -87.90911 | 668 ft | 2 kts | 281° |
| 2026-05-08 00:27 | 41.98054 | -87.90887 | 667 ft | 3 kts | 300° |
| 2026-05-08 00:28 | 41.98042 | -87.90868 | 668 ft | 3 kts | 333° |
| 2026-05-08 00:28 | 41.98024 | -87.90860 | 668 ft | 3 kts | 1° |
| 2026-05-08 00:28 | 41.98007 | -87.90862 | 668 ft | 2 kts | 10° |
| 2026-05-08 00:28 | 41.98004 | -87.90863 | 668 ft | 1 kts | 10° |
| 2026-05-08 00:30 | 41.98018 | -87.90860 | 668 ft | 6 kts | 9° |
| 2026-05-08 00:30 | 41.98078 | -87.90848 | 668 ft | 13 kts | 4° |
| 2026-05-08 00:30 | 41.98188 | -87.90859 | 668 ft | 19 kts | 354° |
| 2026-05-08 00:31 | 41.98284 | -87.90902 | 668 ft | 11 kts | 283° |
| 2026-05-08 00:31 | 41.98287 | -87.91074 | 668 ft | 21 kts | 268° |
| 2026-05-08 00:31 | 41.98288 | -87.91265 | 670 ft | 20 kts | 270° |
| 2026-05-08 00:31 | 41.98288 | -87.91471 | 669 ft | 25 kts | 270° |
| 2026-05-08 00:32 | 41.98288 | -87.91704 | 669 ft | 26 kts | 269° |
| 2026-05-08 00:32 | 41.98288 | -87.91930 | 668 ft | 23 kts | 269° |
| 2026-05-08 00:32 | 41.98288 | -87.92144 | 667 ft | 23 kts | 269° |
| 2026-05-08 00:32 | 41.98287 | -87.92351 | 667 ft | 22 kts | 270° |
| 2026-05-08 00:33 | 41.98380 | -87.92408 | 665 ft | 20 kts | 3° |
| 2026-05-08 00:33 | 41.98546 | -87.92407 | 668 ft | 25 kts | 1° |
| 2026-05-08 00:33 | 41.98678 | -87.92471 | 666 ft | 20 kts | 275° |
| 2026-05-08 00:33 | 41.98678 | -87.92662 | 668 ft | 20 kts | 271° |
| 2026-05-08 00:34 | 41.98670 | -87.92859 | 668 ft | 23 kts | 271° |
| 2026-05-08 00:34 | 41.98678 | -87.93028 | 668 ft | 15 kts | 269° |
| 2026-05-08 00:34 | 41.98722 | -87.93137 | 668 ft | 9 kts | 359° |
| 2026-05-08 00:34 | 41.98736 | -87.93137 | 668 ft | 0 kts | 359° |
| 2026-05-08 00:35 | 41.98779 | -87.93136 | 669 ft | 13 kts | 1° |
| 2026-05-08 00:35 | 41.98831 | -87.93004 | 666 ft | 24 kts | 92° |
| 2026-05-08 00:35 | 41.98829 | -87.92607 | 671 ft | 73 kts | 90° |
| 2026-05-08 00:35 | 41.98829 | -87.91616 | 668 ft | 136 kts | 90° |
| 2026-05-08 00:36 | 41.98832 | -87.90111 | 725 ft | 181 kts | 90° |
| 2026-05-08 00:36 | 41.98884 | -87.88339 | 1247 ft | 194 kts | 87° |
| 2026-05-08 00:36 | 41.98985 | -87.86494 | 1967 ft | 200 kts | 87° |
| 2026-05-08 00:36 | 41.98778 | -87.84619 | 2529 ft | 214 kts | 117° |
| 2026-05-08 00:37 | 41.97765 | -87.83073 | 2757 ft | 231 kts | 153° |
| 2026-05-08 00:37 | 41.96225 | -87.82318 | 3135 ft | 240 kts | 172° |
| 2026-05-08 00:37 | 41.94547 | -87.81952 | 3612 ft | 253 kts | 176° |
| 2026-05-08 00:38 | 41.90934 | -87.81343 | 5002 ft | 269 kts | 177° |
| 2026-05-08 00:38 | 41.89063 | -87.81027 | 5768 ft | 274 kts | 177° |
| 2026-05-08 00:38 | 41.87150 | -87.80698 | 6536 ft | 280 kts | 178° |
| 2026-05-08 00:38 | 41.85200 | -87.80355 | 7292 ft | 284 kts | 178° |
| 2026-05-08 00:39 | 41.83231 | -87.80003 | 8070 ft | 288 kts | 178° |
| 2026-05-08 00:39 | 41.81630 | -87.79717 | 8647 ft | 292 kts | 178° |
| 2026-05-08 00:39 | 41.80917 | -87.79588 | 8912 ft | 294 kts | 179° |
| 2026-05-08 00:39 | 41.78878 | -87.79219 | 9687 ft | 297 kts | 179° |
| 2026-05-08 00:40 | 41.76792 | -87.78841 | 10353 ft | 307 kts | 179° |
| 2026-05-08 00:40 | 41.74597 | -87.78446 | 10561 ft | 332 kts | 179° |
| 2026-05-08 00:40 | 41.72242 | -87.78027 | 10922 ft | 348 kts | 178° |
| 2026-05-08 00:40 | 41.69824 | -87.77586 | 11572 ft | 353 kts | 178° |
| 2026-05-08 00:41 | 41.67390 | -87.77136 | 12354 ft | 355 kts | 178° |
| 2026-05-08 00:41 | 41.64940 | -87.76680 | 13114 ft | 356 kts | 179° |
| 2026-05-08 00:41 | 41.62462 | -87.76234 | 13819 ft | 362 kts | 179° |
| 2026-05-08 00:41 | 41.59961 | -87.75782 | 14602 ft | 364 kts | 179° |
| 2026-05-08 00:42 | 41.57427 | -87.75307 | 15325 ft | 370 kts | 178° |
| 2026-05-08 00:42 | 41.54857 | -87.74832 | 16063 ft | 374 kts | 179° |
| 2026-05-08 00:42 | 41.52257 | -87.74371 | 16726 ft | 380 kts | 179° |
| 2026-05-08 00:42 | 41.49618 | -87.73900 | 17379 ft | 385 kts | 179° |
| 2026-05-08 00:43 | 41.46941 | -87.73417 | 18067 ft | 390 kts | 179° |
| 2026-05-08 00:43 | 41.46730 | -87.73379 | 18120 ft | 390 kts | 179° |
| 2026-05-08 00:43 | 41.45092 | -87.73083 | 18479 ft | 394 kts | 179° |
| 2026-05-08 00:43 | 41.42400 | -87.72601 | 19024 ft | 398 kts | 180° |
| 2026-05-08 00:44 | 41.39636 | -87.72357 | 19563 ft | 398 kts | 187° |
| 2026-05-08 00:44 | 41.36851 | -87.72374 | 20119 ft | 401 kts | 189° |
| 2026-05-08 00:44 | 41.34047 | -87.72452 | 20670 ft | 406 kts | 190° |
| 2026-05-08 00:44 | 41.31200 | -87.72522 | 21165 ft | 412 kts | 190° |
| 2026-05-08 00:45 | 41.28303 | -87.72563 | 21628 ft | 420 kts | 190° |
| 2026-05-08 00:45 | 41.25366 | -87.72587 | 22160 ft | 424 kts | 190° |
| 2026-05-08 00:45 | 41.22396 | -87.72602 | 22704 ft | 429 kts | 190° |
| 2026-05-08 00:45 | 41.19388 | -87.72574 | 23195 ft | 437 kts | 187° |
| 2026-05-08 00:46 | 41.16319 | -87.72277 | 23647 ft | 446 kts | 185° |
| 2026-05-08 00:46 | 41.13212 | -87.71851 | 24092 ft | 451 kts | 183° |
| 2026-05-08 00:46 | 41.10097 | -87.71376 | 24579 ft | 452 kts | 183° |
| 2026-05-08 00:46 | 41.06970 | -87.70897 | 25134 ft | 452 kts | 184° |
| 2026-05-08 00:47 | 41.03850 | -87.70433 | 25660 ft | 452 kts | 184° |
| 2026-05-08 00:47 | 41.00716 | -87.69986 | 26149 ft | 453 kts | 185° |
| 2026-05-08 00:47 | 40.97577 | -87.69554 | 26609 ft | 454 kts | 185° |
| 2026-05-08 00:47 | 40.94428 | -87.69130 | 27046 ft | 456 kts | 185° |
| 2026-05-08 00:48 | 40.91293 | -87.68712 | 27471 ft | 458 kts | 185° |
| 2026-05-08 00:48 | 40.88120 | -87.68290 | 27868 ft | 460 kts | 185° |
| 2026-05-08 00:48 | 40.84949 | -87.67867 | 28394 ft | 459 kts | 185° |
| 2026-05-08 00:48 | 40.81761 | -87.67440 | 28874 ft | 459 kts | 185° |
| 2026-05-08 00:49 | 40.78573 | -87.67015 | 29259 ft | 462 kts | 185° |
| 2026-05-08 00:49 | 40.75364 | -87.66589 | 29628 ft | 464 kts | 185° |
| 2026-05-08 00:49 | 40.72142 | -87.66161 | 29997 ft | 466 kts | 185° |
| 2026-05-08 00:49 | 40.68910 | -87.65730 | 30318 ft | 468 kts | 185° |
| 2026-05-08 00:50 | 40.65661 | -87.65287 | 30610 ft | 470 kts | 185° |
| 2026-05-08 00:50 | 40.62406 | -87.64856 | 30886 ft | 472 kts | 185° |
| 2026-05-08 00:50 | 40.59131 | -87.64425 | 31167 ft | 473 kts | 185° |
| 2026-05-08 00:50 | 40.55849 | -87.63992 | 31459 ft | 475 kts | 185° |
| 2026-05-08 00:51 | 40.52562 | -87.63557 | 31840 ft | 474 kts | 185° |
| 2026-05-08 00:51 | 40.49292 | -87.63121 | 32287 ft | 471 kts | 185° |
| 2026-05-08 00:51 | 40.45993 | -87.62682 | 32708 ft | 469 kts | 186° |
| 2026-05-08 00:51 | 40.42799 | -87.62263 | 33040 ft | 468 kts | 185° |
| 2026-05-08 00:52 | 40.39565 | -87.61835 | 33487 ft | 466 kts | 185° |
| 2026-05-08 00:52 | 40.36345 | -87.61409 | 33880 ft | 464 kts | 185° |
| 2026-05-08 00:52 | 40.33126 | -87.60875 | 34159 ft | 472 kts | 179° |
| 2026-05-08 00:52 | 40.29907 | -87.59735 | 34395 ft | 487 kts | 169° |
| 2026-05-08 00:53 | 40.26773 | -87.57918 | 34680 ft | 496 kts | 163° |
| 2026-05-08 00:53 | 40.23675 | -87.55895 | 34958 ft | 497 kts | 163° |
| 2026-05-08 00:53 | 40.20595 | -87.53846 | 35176 ft | 497 kts | 163° |
| 2026-05-08 00:53 | 40.17507 | -87.51810 | 35477 ft | 495 kts | 163° |
| 2026-05-08 00:54 | 40.14461 | -87.49838 | 35743 ft | 494 kts | 164° |
| 2026-05-08 00:54 | 40.11372 | -87.47867 | 35965 ft | 494 kts | 164° |
| 2026-05-08 00:54 | 40.08280 | -87.45912 | 36193 ft | 494 kts | 164° |
| 2026-05-08 00:54 | 40.05185 | -87.43959 | 36447 ft | 494 kts | 164° |
| 2026-05-08 00:55 | 40.02085 | -87.42002 | 36704 ft | 493 kts | 165° |
| 2026-05-08 00:55 | 39.98995 | -87.40052 | 36878 ft | 494 kts | 165° |
| 2026-05-08 00:55 | 39.95909 | -87.38065 | 37016 ft | 497 kts | 164° |
| 2026-05-08 00:56 | 39.89735 | -87.33918 | 37014 ft | 498 kts | 163° |
| 2026-05-08 00:56 | 39.83619 | -87.29757 | 37006 ft | 495 kts | 164° |
| 2026-05-08 00:57 | 39.77519 | -87.25649 | 37020 ft | 493 kts | 164° |
| 2026-05-08 00:57 | 39.71427 | -87.21577 | 37012 ft | 491 kts | 165° |
| 2026-05-08 00:58 | 39.65353 | -87.17530 | 37020 ft | 491 kts | 165° |
| 2026-05-08 00:58 | 39.59270 | -87.13486 | 37022 ft | 491 kts | 165° |
| 2026-05-08 00:59 | 39.53177 | -87.09440 | 36959 ft | 492 kts | 166° |
| 2026-05-08 00:59 | 39.47075 | -87.05393 | 37017 ft | 493 kts | 166° |
| 2026-05-08 01:00 | 39.40956 | -87.01347 | 37031 ft | 495 kts | 166° |
| 2026-05-08 01:00 | 39.34849 | -86.97315 | 37030 ft | 496 kts | 166° |
| 2026-05-08 01:01 | 39.28687 | -86.93251 | 36992 ft | 497 kts | 166° |
| 2026-05-08 01:01 | 39.22518 | -86.89191 | 37008 ft | 498 kts | 167° |
| 2026-05-08 01:02 | 39.16341 | -86.85134 | 37015 ft | 499 kts | 166° |
| 2026-05-08 01:02 | 39.10184 | -86.80986 | 37031 ft | 500 kts | 166° |
| 2026-05-08 01:03 | 39.04038 | -86.76785 | 37012 ft | 498 kts | 166° |
| 2026-05-08 01:03 | 38.97926 | -86.72619 | 37029 ft | 497 kts | 166° |
| 2026-05-08 01:04 | 38.91817 | -86.68481 | 37033 ft | 496 kts | 166° |
| 2026-05-08 01:04 | 38.85725 | -86.64368 | 37046 ft | 495 kts | 166° |